sensor_id;sensor_type;location;lat;lon;timestamp;P1;durP1;ratioP1;P2;durP2;ratioP2
10132;SDS011;5106;50.926;7.080;2023-12-29T00:01:14;1.38;;;0.82;;
10132;SDS011;5106;50.926;7.080;2023-12-29T00:03:41;5.10;;;1.25;;
10132;SDS011;5106;50.926;7.080;2023-12-29T00:06:07;1.02;;;0.80;;
10132;SDS011;5106;50.926;7.080;2023-12-29T00:08:32;2.50;;;0.88;;
10132;SDS011;5106;50.926;7.080;2023-12-29T00:10:58;3.90;;;0.90;;
10132;SDS011;5106;50.926;7.080;2023-12-29T00:13:25;2.78;;;0.93;;
10132;SDS011;5106;50.926;7.080;2023-12-29T00:15:54;2.42;;;0.85;;
10132;SDS011;5106;50.926;7.080;2023-12-29T00:18:21;2.65;;;0.73;;
10132;SDS011;5106;50.926;7.080;2023-12-29T00:20:49;2.45;;;1.00;;
10132;SDS011;5106;50.926;7.080;2023-12-29T00:23:14;2.55;;;1.10;;
10132;SDS011;5106;50.926;7.080;2023-12-29T00:25:40;2.95;;;1.13;;
10132;SDS011;5106;50.926;7.080;2023-12-29T00:28:06;2.75;;;1.10;;
10132;SDS011;5106;50.926;7.080;2023-12-29T00:30:32;1.77;;;1.00;;
10132;SDS011;5106;50.926;7.080;2023-12-29T00:32:57;4.65;;;1.20;;
10132;SDS011;5106;50.926;7.080;2023-12-29T00:35:23;1.83;;;0.90;;
10132;SDS011;5106;50.926;7.080;2023-12-29T00:37:49;3.75;;;1.13;;
10132;SDS011;5106;50.926;7.080;2023-12-29T00:40:15;1.40;;;1.00;;
10132;SDS011;5106;50.926;7.080;2023-12-29T00:42:41;1.58;;;0.90;;
10132;SDS011;5106;50.926;7.080;2023-12-29T00:45:07;3.63;;;1.33;;
10132;SDS011;5106;50.926;7.080;2023-12-29T00:47:33;5.13;;;1.30;;
10132;SDS011;5106;50.926;7.080;2023-12-29T00:50:01;3.05;;;1.13;;
10132;SDS011;5106;50.926;7.080;2023-12-29T00:52:27;2.63;;;0.93;;
10132;SDS011;5106;50.926;7.080;2023-12-29T00:54:52;3.17;;;1.10;;
10132;SDS011;5106;50.926;7.080;2023-12-29T00:57:18;3.38;;;1.10;;
10132;SDS011;5106;50.926;7.080;2023-12-29T00:59:46;3.08;;;1.50;;
10132;SDS011;5106;50.926;7.080;2023-12-29T01:02:12;2.08;;;1.42;;
10132;SDS011;5106;50.926;7.080;2023-12-29T01:04:38;2.55;;;1.30;;
10132;SDS011;5106;50.926;7.080;2023-12-29T01:07:06;2.83;;;1.50;;
10132;SDS011;5106;50.926;7.080;2023-12-29T01:09:32;3.30;;;1.25;;
10132;SDS011;5106;50.926;7.080;2023-12-29T01:12:03;2.42;;;1.23;;
10132;SDS011;5106;50.926;7.080;2023-12-29T01:14:29;2.45;;;1.20;;
10132;SDS011;5106;50.926;7.080;2023-12-29T01:16:54;1.63;;;1.02;;
10132;SDS011;5106;50.926;7.080;2023-12-29T01:19:20;4.35;;;1.20;;
10132;SDS011;5106;50.926;7.080;2023-12-29T01:21:45;4.35;;;1.25;;
10132;SDS011;5106;50.926;7.080;2023-12-29T01:24:11;3.40;;;1.25;;
10132;SDS011;5106;50.926;7.080;2023-12-29T01:26:37;3.83;;;1.17;;
10132;SDS011;5106;50.926;7.080;2023-12-29T01:29:03;3.38;;;1.45;;
10132;SDS011;5106;50.926;7.080;2023-12-29T01:31:30;2.60;;;1.38;;
10132;SDS011;5106;50.926;7.080;2023-12-29T01:33:55;3.40;;;1.40;;
10132;SDS011;5106;50.926;7.080;2023-12-29T01:36:21;3.20;;;1.58;;
10132;SDS011;5106;50.926;7.080;2023-12-29T01:38:47;2.92;;;1.10;;
10132;SDS011;5106;50.926;7.080;2023-12-29T01:41:13;2.40;;;1.25;;
10132;SDS011;5106;50.926;7.080;2023-12-29T01:46:31;3.03;;;1.30;;
10132;SDS011;5106;50.926;7.080;2023-12-29T01:48:59;2.28;;;1.23;;
10132;SDS011;5106;50.926;7.080;2023-12-29T01:51:26;2.90;;;1.48;;
10132;SDS011;5106;50.926;7.080;2023-12-29T01:53:55;2.67;;;1.42;;
10132;SDS011;5106;50.926;7.080;2023-12-29T01:56:22;3.80;;;1.30;;
10132;SDS011;5106;50.926;7.080;2023-12-29T01:58:49;3.00;;;1.38;;
10132;SDS011;5106;50.926;7.080;2023-12-29T02:01:16;4.85;;;1.55;;
10132;SDS011;5106;50.926;7.080;2023-12-29T02:03:44;3.30;;;1.40;;
10132;SDS011;5106;50.926;7.080;2023-12-29T02:06:10;3.75;;;1.45;;
10132;SDS011;5106;50.926;7.080;2023-12-29T02:08:40;3.72;;;1.50;;
10132;SDS011;5106;50.926;7.080;2023-12-29T02:11:06;5.78;;;1.48;;
10132;SDS011;5106;50.926;7.080;2023-12-29T02:13:32;4.00;;;1.65;;
10132;SDS011;5106;50.926;7.080;2023-12-29T02:16:07;4.80;;;1.20;;
10132;SDS011;5106;50.926;7.080;2023-12-29T02:19:13;5.88;;;1.25;;
10132;SDS011;5106;50.926;7.080;2023-12-29T02:21:50;3.65;;;1.30;;
10132;SDS011;5106;50.926;7.080;2023-12-29T02:24:15;4.18;;;1.30;;
10132;SDS011;5106;50.926;7.080;2023-12-29T02:26:42;4.40;;;1.30;;
10132;SDS011;5106;50.926;7.080;2023-12-29T02:29:12;2.92;;;1.13;;
10132;SDS011;5106;50.926;7.080;2023-12-29T02:31:43;3.55;;;1.40;;
10132;SDS011;5106;50.926;7.080;2023-12-29T02:34:13;3.75;;;1.33;;
10132;SDS011;5106;50.926;7.080;2023-12-29T02:36:39;9.40;;;1.42;;
10132;SDS011;5106;50.926;7.080;2023-12-29T02:39:08;3.08;;;1.38;;
10132;SDS011;5106;50.926;7.080;2023-12-29T02:41:36;2.80;;;1.35;;
10132;SDS011;5106;50.926;7.080;2023-12-29T02:44:03;7.30;;;1.75;;
10132;SDS011;5106;50.926;7.080;2023-12-29T02:46:29;4.57;;;1.35;;
10132;SDS011;5106;50.926;7.080;2023-12-29T02:48:54;2.65;;;1.30;;
10132;SDS011;5106;50.926;7.080;2023-12-29T02:51:20;5.30;;;1.65;;
10132;SDS011;5106;50.926;7.080;2023-12-29T02:53:45;4.32;;;1.27;;
10132;SDS011;5106;50.926;7.080;2023-12-29T02:56:12;4.45;;;1.60;;
10132;SDS011;5106;50.926;7.080;2023-12-29T02:58:38;2.60;;;1.20;;
10132;SDS011;5106;50.926;7.080;2023-12-29T03:01:03;4.38;;;1.40;;
10132;SDS011;5106;50.926;7.080;2023-12-29T03:03:29;3.15;;;1.23;;
10132;SDS011;5106;50.926;7.080;2023-12-29T03:05:55;4.25;;;1.50;;
10132;SDS011;5106;50.926;7.080;2023-12-29T03:08:20;4.72;;;1.52;;
10132;SDS011;5106;50.926;7.080;2023-12-29T03:10:46;2.22;;;1.30;;
10132;SDS011;5106;50.926;7.080;2023-12-29T03:13:11;5.47;;;1.65;;
10132;SDS011;5106;50.926;7.080;2023-12-29T03:15:37;3.25;;;1.55;;
10132;SDS011;5106;50.926;7.080;2023-12-29T03:18:02;2.42;;;1.42;;
10132;SDS011;5106;50.926;7.080;2023-12-29T03:20:28;3.55;;;1.58;;
10132;SDS011;5106;50.926;7.080;2023-12-29T03:22:54;4.13;;;1.38;;
10132;SDS011;5106;50.926;7.080;2023-12-29T03:25:20;3.20;;;1.23;;
10132;SDS011;5106;50.926;7.080;2023-12-29T03:27:46;4.22;;;1.50;;
10132;SDS011;5106;50.926;7.080;2023-12-29T03:30:11;6.00;;;1.67;;
10132;SDS011;5106;50.926;7.080;2023-12-29T03:32:37;3.58;;;1.30;;
10132;SDS011;5106;50.926;7.080;2023-12-29T03:35:03;2.78;;;1.10;;
10132;SDS011;5106;50.926;7.080;2023-12-29T03:37:29;3.58;;;1.20;;
10132;SDS011;5106;50.926;7.080;2023-12-29T03:39:54;6.13;;;1.38;;
10132;SDS011;5106;50.926;7.080;2023-12-29T03:42:20;2.95;;;1.27;;
10132;SDS011;5106;50.926;7.080;2023-12-29T03:44:45;4.00;;;1.27;;
10132;SDS011;5106;50.926;7.080;2023-12-29T03:47:11;4.35;;;1.23;;
10132;SDS011;5106;50.926;7.080;2023-12-29T03:49:36;2.80;;;1.20;;
10132;SDS011;5106;50.926;7.080;2023-12-29T03:52:02;4.32;;;1.30;;
10132;SDS011;5106;50.926;7.080;2023-12-29T03:54:28;3.20;;;1.40;;
10132;SDS011;5106;50.926;7.080;2023-12-29T03:56:53;3.90;;;1.17;;
10132;SDS011;5106;50.926;7.080;2023-12-29T03:59:19;4.38;;;1.40;;
10132;SDS011;5106;50.926;7.080;2023-12-29T04:01:45;4.72;;;1.30;;
10132;SDS011;5106;50.926;7.080;2023-12-29T04:04:10;4.03;;;1.35;;
10132;SDS011;5106;50.926;7.080;2023-12-29T04:06:36;2.33;;;1.05;;
10132;SDS011;5106;50.926;7.080;2023-12-29T04:09:01;2.28;;;1.20;;
10132;SDS011;5106;50.926;7.080;2023-12-29T04:11:28;4.10;;;1.20;;
10132;SDS011;5106;50.926;7.080;2023-12-29T04:13:53;2.72;;;1.40;;
10132;SDS011;5106;50.926;7.080;2023-12-29T04:16:19;3.70;;;1.50;;
10132;SDS011;5106;50.926;7.080;2023-12-29T04:18:45;3.13;;;1.15;;
10132;SDS011;5106;50.926;7.080;2023-12-29T04:21:14;3.65;;;1.30;;
10132;SDS011;5106;50.926;7.080;2023-12-29T04:23:40;3.88;;;1.38;;
10132;SDS011;5106;50.926;7.080;2023-12-29T04:26:07;3.67;;;1.40;;
10132;SDS011;5106;50.926;7.080;2023-12-29T04:28:32;4.72;;;1.40;;
10132;SDS011;5106;50.926;7.080;2023-12-29T04:30:58;5.35;;;2.00;;
10132;SDS011;5106;50.926;7.080;2023-12-29T04:33:24;5.90;;;1.77;;
10132;SDS011;5106;50.926;7.080;2023-12-29T04:35:49;4.10;;;1.40;;
10132;SDS011;5106;50.926;7.080;2023-12-29T04:38:16;4.90;;;1.70;;
10132;SDS011;5106;50.926;7.080;2023-12-29T04:40:44;4.75;;;1.45;;
10132;SDS011;5106;50.926;7.080;2023-12-29T04:43:10;4.25;;;1.30;;
10132;SDS011;5106;50.926;7.080;2023-12-29T04:45:36;2.67;;;1.20;;
10132;SDS011;5106;50.926;7.080;2023-12-29T04:48:01;4.53;;;1.30;;
10132;SDS011;5106;50.926;7.080;2023-12-29T04:50:27;4.40;;;1.45;;
10132;SDS011;5106;50.926;7.080;2023-12-29T04:52:52;3.25;;;1.00;;
10132;SDS011;5106;50.926;7.080;2023-12-29T04:55:18;5.55;;;1.60;;
10132;SDS011;5106;50.926;7.080;2023-12-29T04:57:44;4.22;;;1.13;;
10132;SDS011;5106;50.926;7.080;2023-12-29T05:00:09;2.63;;;1.08;;
10132;SDS011;5106;50.926;7.080;2023-12-29T05:02:35;7.03;;;1.35;;
10132;SDS011;5106;50.926;7.080;2023-12-29T05:05:01;4.50;;;1.42;;
10132;SDS011;5106;50.926;7.080;2023-12-29T05:07:26;4.25;;;1.65;;
10132;SDS011;5106;50.926;7.080;2023-12-29T05:09:52;1.70;;;0.95;;
10132;SDS011;5106;50.926;7.080;2023-12-29T05:12:18;3.40;;;1.33;;
10132;SDS011;5106;50.926;7.080;2023-12-29T05:14:43;3.38;;;1.30;;
10132;SDS011;5106;50.926;7.080;2023-12-29T05:17:09;4.13;;;1.25;;
10132;SDS011;5106;50.926;7.080;2023-12-29T05:19:35;4.13;;;1.52;;
10132;SDS011;5106;50.926;7.080;2023-12-29T05:22:00;3.85;;;1.33;;
10132;SDS011;5106;50.926;7.080;2023-12-29T05:24:26;2.97;;;1.27;;
10132;SDS011;5106;50.926;7.080;2023-12-29T05:26:51;3.22;;;1.08;;
10132;SDS011;5106;50.926;7.080;2023-12-29T05:29:17;3.55;;;1.38;;
10132;SDS011;5106;50.926;7.080;2023-12-29T05:31:42;4.38;;;1.30;;
10132;SDS011;5106;50.926;7.080;2023-12-29T05:34:08;5.03;;;1.10;;
10132;SDS011;5106;50.926;7.080;2023-12-29T05:36:36;3.20;;;1.20;;
10132;SDS011;5106;50.926;7.080;2023-12-29T05:39:02;4.53;;;1.25;;
10132;SDS011;5106;50.926;7.080;2023-12-29T05:41:29;4.13;;;0.95;;
10132;SDS011;5106;50.926;7.080;2023-12-29T05:43:54;6.20;;;1.50;;
10132;SDS011;5106;50.926;7.080;2023-12-29T05:46:22;6.00;;;1.65;;
10132;SDS011;5106;50.926;7.080;2023-12-29T05:48:47;4.82;;;1.77;;
10132;SDS011;5106;50.926;7.080;2023-12-29T05:51:13;2.45;;;1.10;;
10132;SDS011;5106;50.926;7.080;2023-12-29T05:53:39;4.68;;;1.40;;
10132;SDS011;5106;50.926;7.080;2023-12-29T05:56:05;3.78;;;0.98;;
10132;SDS011;5106;50.926;7.080;2023-12-29T05:58:31;4.68;;;1.10;;
10132;SDS011;5106;50.926;7.080;2023-12-29T06:00:57;7.25;;;1.35;;
10132;SDS011;5106;50.926;7.080;2023-12-29T06:03:26;4.15;;;1.35;;
10132;SDS011;5106;50.926;7.080;2023-12-29T06:05:52;4.43;;;1.30;;
10132;SDS011;5106;50.926;7.080;2023-12-29T06:08:18;4.10;;;1.20;;
10132;SDS011;5106;50.926;7.080;2023-12-29T06:10:44;2.88;;;1.52;;
10132;SDS011;5106;50.926;7.080;2023-12-29T06:13:09;4.45;;;1.23;;
10132;SDS011;5106;50.926;7.080;2023-12-29T06:15:35;3.33;;;0.95;;
10132;SDS011;5106;50.926;7.080;2023-12-29T06:18:01;4.38;;;1.20;;
10132;SDS011;5106;50.926;7.080;2023-12-29T06:20:27;2.47;;;0.90;;
10132;SDS011;5106;50.926;7.080;2023-12-29T06:22:53;5.38;;;1.20;;
10132;SDS011;5106;50.926;7.080;2023-12-29T06:25:18;4.13;;;1.45;;
10132;SDS011;5106;50.926;7.080;2023-12-29T06:27:44;1.83;;;0.80;;
10132;SDS011;5106;50.926;7.080;2023-12-29T06:30:10;3.60;;;1.13;;
10132;SDS011;5106;50.926;7.080;2023-12-29T06:32:36;2.92;;;1.20;;
10132;SDS011;5106;50.926;7.080;2023-12-29T06:35:02;2.88;;;1.17;;
10132;SDS011;5106;50.926;7.080;2023-12-29T06:37:28;5.05;;;1.48;;
10132;SDS011;5106;50.926;7.080;2023-12-29T06:39:54;4.43;;;1.05;;
10132;SDS011;5106;50.926;7.080;2023-12-29T06:42:19;2.42;;;0.90;;
10132;SDS011;5106;50.926;7.080;2023-12-29T06:44:45;3.60;;;1.00;;
10132;SDS011;5106;50.926;7.080;2023-12-29T06:47:11;2.50;;;1.10;;
10132;SDS011;5106;50.926;7.080;2023-12-29T06:49:37;6.22;;;1.40;;
10132;SDS011;5106;50.926;7.080;2023-12-29T06:52:03;3.85;;;1.13;;
10132;SDS011;5106;50.926;7.080;2023-12-29T06:54:29;3.22;;;1.10;;
10132;SDS011;5106;50.926;7.080;2023-12-29T06:56:55;3.38;;;1.15;;
10132;SDS011;5106;50.926;7.080;2023-12-29T06:59:21;3.05;;;0.90;;
10132;SDS011;5106;50.926;7.080;2023-12-29T07:01:48;4.55;;;1.02;;
10132;SDS011;5106;50.926;7.080;2023-12-29T07:04:14;4.25;;;0.93;;
10132;SDS011;5106;50.926;7.080;2023-12-29T07:06:40;3.25;;;1.15;;
10132;SDS011;5106;50.926;7.080;2023-12-29T07:09:06;3.33;;;1.08;;
10132;SDS011;5106;50.926;7.080;2023-12-29T07:11:33;2.38;;;1.08;;
10132;SDS011;5106;50.926;7.080;2023-12-29T07:13:59;3.00;;;1.38;;
10132;SDS011;5106;50.926;7.080;2023-12-29T07:16:24;2.60;;;1.08;;
10132;SDS011;5106;50.926;7.080;2023-12-29T07:18:50;4.45;;;1.13;;
10132;SDS011;5106;50.926;7.080;2023-12-29T07:21:17;3.28;;;1.20;;
10132;SDS011;5106;50.926;7.080;2023-12-29T07:23:43;3.83;;;1.13;;
10132;SDS011;5106;50.926;7.080;2023-12-29T07:26:08;4.03;;;1.10;;
10132;SDS011;5106;50.926;7.080;2023-12-29T07:28:34;6.32;;;1.10;;
10132;SDS011;5106;50.926;7.080;2023-12-29T07:31:05;3.72;;;1.35;;
10132;SDS011;5106;50.926;7.080;2023-12-29T07:33:31;2.20;;;0.90;;
10132;SDS011;5106;50.926;7.080;2023-12-29T07:35:56;5.93;;;1.40;;
10132;SDS011;5106;50.926;7.080;2023-12-29T07:38:23;4.55;;;1.08;;
10132;SDS011;5106;50.926;7.080;2023-12-29T07:40:49;2.50;;;1.05;;
10132;SDS011;5106;50.926;7.080;2023-12-29T07:43:14;2.00;;;1.10;;
10132;SDS011;5106;50.926;7.080;2023-12-29T07:45:40;3.75;;;0.93;;
10132;SDS011;5106;50.926;7.080;2023-12-29T07:48:08;2.60;;;1.08;;
10132;SDS011;5106;50.926;7.080;2023-12-29T07:50:33;3.38;;;1.00;;
10132;SDS011;5106;50.926;7.080;2023-12-29T07:52:59;2.47;;;0.82;;
10132;SDS011;5106;50.926;7.080;2023-12-29T07:55:28;2.05;;;0.90;;
10132;SDS011;5106;50.926;7.080;2023-12-29T07:57:56;1.58;;;0.82;;
10132;SDS011;5106;50.926;7.080;2023-12-29T08:00:22;2.35;;;0.95;;
10132;SDS011;5106;50.926;7.080;2023-12-29T08:02:48;2.05;;;0.90;;
10132;SDS011;5106;50.926;7.080;2023-12-29T08:05:14;2.25;;;1.00;;
10132;SDS011;5106;50.926;7.080;2023-12-29T08:07:40;2.97;;;1.08;;
10132;SDS011;5106;50.926;7.080;2023-12-29T08:10:06;4.82;;;1.30;;
10132;SDS011;5106;50.926;7.080;2023-12-29T08:12:32;2.53;;;0.70;;
10132;SDS011;5106;50.926;7.080;2023-12-29T08:14:59;1.95;;;0.80;;
10132;SDS011;5106;50.926;7.080;2023-12-29T08:17:25;2.58;;;1.05;;
10132;SDS011;5106;50.926;7.080;2023-12-29T08:19:51;2.63;;;0.80;;
10132;SDS011;5106;50.926;7.080;2023-12-29T08:22:16;4.30;;;0.90;;
10132;SDS011;5106;50.926;7.080;2023-12-29T08:24:42;3.08;;;1.20;;
10132;SDS011;5106;50.926;7.080;2023-12-29T08:27:14;2.95;;;1.13;;
10132;SDS011;5106;50.926;7.080;2023-12-29T08:29:40;4.55;;;1.20;;
10132;SDS011;5106;50.926;7.080;2023-12-29T08:32:06;3.00;;;1.20;;
10132;SDS011;5106;50.926;7.080;2023-12-29T08:34:32;2.72;;;1.40;;
10132;SDS011;5106;50.926;7.080;2023-12-29T08:36:59;5.10;;;1.30;;
10132;SDS011;5106;50.926;7.080;2023-12-29T08:39:25;3.05;;;1.40;;
10132;SDS011;5106;50.926;7.080;2023-12-29T08:41:50;5.25;;;1.05;;
10132;SDS011;5106;50.926;7.080;2023-12-29T08:44:16;3.05;;;1.23;;
10132;SDS011;5106;50.926;7.080;2023-12-29T08:46:42;6.75;;;1.52;;
10132;SDS011;5106;50.926;7.080;2023-12-29T08:49:07;5.53;;;1.20;;
10132;SDS011;5106;50.926;7.080;2023-12-29T08:51:33;4.93;;;1.25;;
10132;SDS011;5106;50.926;7.080;2023-12-29T08:53:59;3.20;;;1.30;;
10132;SDS011;5106;50.926;7.080;2023-12-29T08:56:24;4.57;;;1.35;;
10132;SDS011;5106;50.926;7.080;2023-12-29T08:58:50;3.33;;;1.40;;
10132;SDS011;5106;50.926;7.080;2023-12-29T09:01:16;3.00;;;1.48;;
10132;SDS011;5106;50.926;7.080;2023-12-29T09:03:42;4.50;;;1.88;;
10132;SDS011;5106;50.926;7.080;2023-12-29T09:06:07;4.03;;;1.30;;
10132;SDS011;5106;50.926;7.080;2023-12-29T09:08:34;3.60;;;1.55;;
10132;SDS011;5106;50.926;7.080;2023-12-29T09:11:00;4.85;;;1.38;;
10132;SDS011;5106;50.926;7.080;2023-12-29T09:13:26;4.90;;;1.20;;
10132;SDS011;5106;50.926;7.080;2023-12-29T09:15:52;6.22;;;1.58;;
10132;SDS011;5106;50.926;7.080;2023-12-29T09:18:19;5.20;;;1.50;;
10132;SDS011;5106;50.926;7.080;2023-12-29T09:20:44;5.30;;;1.65;;
10132;SDS011;5106;50.926;7.080;2023-12-29T09:23:10;4.55;;;1.63;;
10132;SDS011;5106;50.926;7.080;2023-12-29T09:25:36;4.80;;;1.42;;
10132;SDS011;5106;50.926;7.080;2023-12-29T09:28:02;3.83;;;1.30;;
10132;SDS011;5106;50.926;7.080;2023-12-29T09:30:28;3.78;;;1.20;;
10132;SDS011;5106;50.926;7.080;2023-12-29T09:32:53;5.90;;;1.80;;
10132;SDS011;5106;50.926;7.080;2023-12-29T09:35:19;3.10;;;1.30;;
10132;SDS011;5106;50.926;7.080;2023-12-29T09:37:47;3.67;;;1.40;;
10132;SDS011;5106;50.926;7.080;2023-12-29T09:40:13;4.43;;;1.38;;
10132;SDS011;5106;50.926;7.080;2023-12-29T09:42:39;5.63;;;2.00;;
10132;SDS011;5106;50.926;7.080;2023-12-29T09:45:08;2.78;;;1.23;;
10132;SDS011;5106;50.926;7.080;2023-12-29T09:47:38;3.35;;;1.42;;
10132;SDS011;5106;50.926;7.080;2023-12-29T09:50:05;4.43;;;1.40;;
10132;SDS011;5106;50.926;7.080;2023-12-29T09:52:33;3.20;;;1.60;;
10132;SDS011;5106;50.926;7.080;2023-12-29T09:54:59;8.50;;;1.92;;
10132;SDS011;5106;50.926;7.080;2023-12-29T09:57:25;6.97;;;1.88;;
10132;SDS011;5106;50.926;7.080;2023-12-29T09:59:52;6.80;;;1.85;;
10132;SDS011;5106;50.926;7.080;2023-12-29T10:02:20;3.05;;;1.33;;
10132;SDS011;5106;50.926;7.080;2023-12-29T10:04:47;3.55;;;1.50;;
10132;SDS011;5106;50.926;7.080;2023-12-29T10:07:25;3.35;;;1.10;;
10132;SDS011;5106;50.926;7.080;2023-12-29T10:09:55;3.88;;;1.35;;
10132;SDS011;5106;50.926;7.080;2023-12-29T10:12:21;3.33;;;1.20;;
10132;SDS011;5106;50.926;7.080;2023-12-29T10:14:55;6.68;;;1.30;;
10132;SDS011;5106;50.926;7.080;2023-12-29T10:17:48;2.58;;;1.10;;
10132;SDS011;5106;50.926;7.080;2023-12-29T10:23:45;1.50;;;0.80;;
10132;SDS011;5106;50.926;7.080;2023-12-29T10:26:17;1.73;;;0.90;;
10132;SDS011;5106;50.926;7.080;2023-12-29T10:28:43;2.67;;;1.15;;
10132;SDS011;5106;50.926;7.080;2023-12-29T10:31:14;1.58;;;1.00;;
10132;SDS011;5106;50.926;7.080;2023-12-29T10:33:41;2.03;;;1.02;;
10132;SDS011;5106;50.926;7.080;2023-12-29T10:36:07;1.80;;;1.00;;
10132;SDS011;5106;50.926;7.080;2023-12-29T10:38:33;3.42;;;1.17;;
10132;SDS011;5106;50.926;7.080;2023-12-29T10:41:18;3.75;;;1.08;;
10132;SDS011;5106;50.926;7.080;2023-12-29T10:43:45;1.88;;;0.88;;
10132;SDS011;5106;50.926;7.080;2023-12-29T10:46:17;10.70;;;1.42;;
10132;SDS011;5106;50.926;7.080;2023-12-29T10:48:43;3.95;;;1.23;;
10132;SDS011;5106;50.926;7.080;2023-12-29T10:51:08;8.82;;;1.38;;
10132;SDS011;5106;50.926;7.080;2023-12-29T10:53:35;8.40;;;1.23;;
10132;SDS011;5106;50.926;7.080;2023-12-29T10:56:02;5.03;;;1.20;;
10132;SDS011;5106;50.926;7.080;2023-12-29T10:58:28;3.40;;;1.13;;
10132;SDS011;5106;50.926;7.080;2023-12-29T11:00:57;1.48;;;0.80;;
10132;SDS011;5106;50.926;7.080;2023-12-29T11:03:26;1.90;;;0.70;;
10132;SDS011;5106;50.926;7.080;2023-12-29T11:05:58;1.10;;;0.65;;
10132;SDS011;5106;50.926;7.080;2023-12-29T11:08:26;2.55;;;0.75;;
10132;SDS011;5106;50.926;7.080;2023-12-29T11:10:52;0.77;;;0.50;;
10132;SDS011;5106;50.926;7.080;2023-12-29T11:13:20;0.80;;;0.68;;
10132;SDS011;5106;50.926;7.080;2023-12-29T11:15:46;2.65;;;0.95;;
10132;SDS011;5106;50.926;7.080;2023-12-29T11:18:13;1.67;;;0.88;;
10132;SDS011;5106;50.926;7.080;2023-12-29T11:20:40;1.63;;;0.93;;
10132;SDS011;5106;50.926;7.080;2023-12-29T11:23:06;0.90;;;0.75;;
10132;SDS011;5106;50.926;7.080;2023-12-29T11:25:34;2.90;;;1.15;;
10132;SDS011;5106;50.926;7.080;2023-12-29T11:28:00;1.95;;;0.85;;
10132;SDS011;5106;50.926;7.080;2023-12-29T11:30:26;0.73;;;0.60;;
10132;SDS011;5106;50.926;7.080;2023-12-29T11:32:57;2.88;;;0.80;;
10132;SDS011;5106;50.926;7.080;2023-12-29T11:41:03;3.63;;;0.60;;
10132;SDS011;5106;50.926;7.080;2023-12-29T11:43:35;3.63;;;0.90;;
10132;SDS011;5106;50.926;7.080;2023-12-29T11:46:01;1.58;;;0.68;;
10132;SDS011;5106;50.926;7.080;2023-12-29T11:51:28;2.03;;;0.85;;
10132;SDS011;5106;50.926;7.080;2023-12-29T11:54:09;1.25;;;0.60;;
10132;SDS011;5106;50.926;7.080;2023-12-29T11:59:23;3.88;;;1.08;;
10132;SDS011;5106;50.926;7.080;2023-12-29T12:01:51;0.93;;;0.60;;
10132;SDS011;5106;50.926;7.080;2023-12-29T12:04:44;1.45;;;0.68;;
10132;SDS011;5106;50.926;7.080;2023-12-29T12:07:16;5.85;;;0.75;;
10132;SDS011;5106;50.926;7.080;2023-12-29T12:09:42;4.15;;;0.77;;
10132;SDS011;5106;50.926;7.080;2023-12-29T12:12:08;1.38;;;0.80;;
10132;SDS011;5106;50.926;7.080;2023-12-29T12:14:48;1.17;;;0.50;;
10132;SDS011;5106;50.926;7.080;2023-12-29T12:17:33;0.88;;;0.40;;
10132;SDS011;5106;50.926;7.080;2023-12-29T12:20:03;0.70;;;0.50;;
10132;SDS011;5106;50.926;7.080;2023-12-29T12:22:33;3.70;;;0.80;;
10132;SDS011;5106;50.926;7.080;2023-12-29T12:25:01;0.75;;;0.40;;
10132;SDS011;5106;50.926;7.080;2023-12-29T12:27:28;1.63;;;0.50;;
10132;SDS011;5106;50.926;7.080;2023-12-29T12:29:55;1.70;;;0.60;;
10132;SDS011;5106;50.926;7.080;2023-12-29T12:32:28;1.17;;;0.63;;
10132;SDS011;5106;50.926;7.080;2023-12-29T12:34:54;1.10;;;0.57;;
10132;SDS011;5106;50.926;7.080;2023-12-29T12:37:20;1.63;;;0.50;;
10132;SDS011;5106;50.926;7.080;2023-12-29T12:39:46;0.70;;;0.50;;
10132;SDS011;5106;50.926;7.080;2023-12-29T12:42:13;1.48;;;0.73;;
10132;SDS011;5106;50.926;7.080;2023-12-29T12:44:38;4.97;;;0.98;;
10132;SDS011;5106;50.926;7.080;2023-12-29T12:47:07;0.85;;;0.50;;
10132;SDS011;5106;50.926;7.080;2023-12-29T12:49:39;1.23;;;0.50;;
10132;SDS011;5106;50.926;7.080;2023-12-29T12:52:05;1.27;;;0.70;;
10132;SDS011;5106;50.926;7.080;2023-12-29T12:54:31;0.90;;;0.55;;
10132;SDS011;5106;50.926;7.080;2023-12-29T12:56:56;2.63;;;0.60;;
10132;SDS011;5106;50.926;7.080;2023-12-29T12:59:22;0.85;;;0.40;;
10132;SDS011;5106;50.926;7.080;2023-12-29T13:01:48;0.70;;;0.40;;
10132;SDS011;5106;50.926;7.080;2023-12-29T13:04:14;0.65;;;0.40;;
10132;SDS011;5106;50.926;7.080;2023-12-29T13:06:41;1.30;;;0.65;;
10132;SDS011;5106;50.926;7.080;2023-12-29T13:09:11;1.83;;;0.90;;
10132;SDS011;5106;50.926;7.080;2023-12-29T13:11:37;2.45;;;0.70;;
10132;SDS011;5106;50.926;7.080;2023-12-29T13:14:05;1.42;;;0.70;;
10132;SDS011;5106;50.926;7.080;2023-12-29T13:16:32;2.47;;;0.80;;
10132;SDS011;5106;50.926;7.080;2023-12-29T13:19:19;0.95;;;0.47;;
10132;SDS011;5106;50.926;7.080;2023-12-29T13:21:52;1.63;;;0.70;;
10132;SDS011;5106;50.926;7.080;2023-12-29T13:24:20;4.22;;;0.55;;
10132;SDS011;5106;50.926;7.080;2023-12-29T13:26:46;0.95;;;0.45;;
10132;SDS011;5106;50.926;7.080;2023-12-29T13:29:17;2.15;;;0.60;;
10132;SDS011;5106;50.926;7.080;2023-12-29T13:31:45;1.05;;;0.40;;
10132;SDS011;5106;50.926;7.080;2023-12-29T13:34:16;1.00;;;0.60;;
10132;SDS011;5106;50.926;7.080;2023-12-29T13:37:00;0.77;;;0.50;;
10132;SDS011;5106;50.926;7.080;2023-12-29T13:39:29;1.83;;;0.60;;
10132;SDS011;5106;50.926;7.080;2023-12-29T13:42:02;0.60;;;0.43;;
10132;SDS011;5106;50.926;7.080;2023-12-29T13:44:30;2.55;;;0.80;;
10132;SDS011;5106;50.926;7.080;2023-12-29T13:46:56;1.65;;;0.40;;
10132;SDS011;5106;50.926;7.080;2023-12-29T13:49:22;1.40;;;0.50;;
10132;SDS011;5106;50.926;7.080;2023-12-29T13:51:48;1.90;;;0.57;;
10132;SDS011;5106;50.926;7.080;2023-12-29T13:54:14;0.60;;;0.50;;
10132;SDS011;5106;50.926;7.080;2023-12-29T13:56:50;1.02;;;0.50;;
10132;SDS011;5106;50.926;7.080;2023-12-29T13:59:16;0.90;;;0.50;;
10132;SDS011;5106;50.926;7.080;2023-12-29T14:01:42;1.92;;;0.50;;
10132;SDS011;5106;50.926;7.080;2023-12-29T14:04:08;1.20;;;0.40;;
10132;SDS011;5106;50.926;7.080;2023-12-29T14:06:42;1.17;;;0.50;;
10132;SDS011;5106;50.926;7.080;2023-12-29T14:09:18;0.55;;;0.45;;
10132;SDS011;5106;50.926;7.080;2023-12-29T14:11:47;0.95;;;0.40;;
10132;SDS011;5106;50.926;7.080;2023-12-29T14:14:14;1.77;;;0.63;;
10132;SDS011;5106;50.926;7.080;2023-12-29T14:16:46;1.10;;;0.50;;
10132;SDS011;5106;50.926;7.080;2023-12-29T14:19:12;1.05;;;0.60;;
10132;SDS011;5106;50.926;7.080;2023-12-29T14:21:37;0.85;;;0.50;;
10132;SDS011;5106;50.926;7.080;2023-12-29T14:24:12;1.88;;;0.60;;
10132;SDS011;5106;50.926;7.080;2023-12-29T14:27:00;1.60;;;0.90;;
10132;SDS011;5106;50.926;7.080;2023-12-29T14:29:27;1.38;;;0.68;;
10132;SDS011;5106;50.926;7.080;2023-12-29T14:31:53;1.35;;;0.93;;
10132;SDS011;5106;50.926;7.080;2023-12-29T14:34:21;2.17;;;0.80;;
10132;SDS011;5106;50.926;7.080;2023-12-29T14:36:47;1.25;;;0.88;;
10132;SDS011;5106;50.926;7.080;2023-12-29T14:39:13;1.92;;;0.95;;
10132;SDS011;5106;50.926;7.080;2023-12-29T14:41:40;0.70;;;0.70;;
10132;SDS011;5106;50.926;7.080;2023-12-29T14:44:06;1.27;;;0.70;;
10132;SDS011;5106;50.926;7.080;2023-12-29T14:46:32;1.98;;;1.13;;
10132;SDS011;5106;50.926;7.080;2023-12-29T14:48:59;1.92;;;1.17;;
10132;SDS011;5106;50.926;7.080;2023-12-29T14:51:25;1.33;;;0.80;;
10132;SDS011;5106;50.926;7.080;2023-12-29T14:53:50;2.80;;;1.27;;
10132;SDS011;5106;50.926;7.080;2023-12-29T14:56:16;1.92;;;1.15;;
10132;SDS011;5106;50.926;7.080;2023-12-29T14:58:42;1.98;;;1.05;;
10132;SDS011;5106;50.926;7.080;2023-12-29T15:01:08;2.78;;;0.90;;
10132;SDS011;5106;50.926;7.080;2023-12-29T15:03:34;2.88;;;1.42;;
10132;SDS011;5106;50.926;7.080;2023-12-29T15:06:01;3.38;;;1.40;;
10132;SDS011;5106;50.926;7.080;2023-12-29T15:08:27;2.80;;;1.30;;
10132;SDS011;5106;50.926;7.080;2023-12-29T15:10:59;3.20;;;1.20;;
10132;SDS011;5106;50.926;7.080;2023-12-29T15:13:28;1.75;;;0.75;;
10132;SDS011;5106;50.926;7.080;2023-12-29T15:15:55;2.03;;;0.80;;
10132;SDS011;5106;50.926;7.080;2023-12-29T15:18:21;0.60;;;0.60;;